Time;durP1;ratioP1;P1;durP2;ratioP2;P2;SDS_P1;SDS_P2;PMS_P1;PMS_P2;Temp;Humidity;BMP_temperature;BMP_pressure;BME280_temperature;BME280_humidity;BME280_pressure;Samples;Min_cycle;Max_cycle;Signal;HPM_P1;HPM_P2
2021/09/20 00:01:34;;;;;;;1.40;1.30;;;22.30;67.90;;;;;;5123158;28;20059;-35
2021/09/20 00:04:01;;;;;;;1.52;1.20;;;22.30;67.10;;;;;;5123271;28;20035;-35
2021/09/20 00:06:27;;;;;;;2.22;1.33;;;22.30;67.80;;;;;;5123143;28;20039;-35
2021/09/20 00:08:53;;;;;;;1.27;1.17;;;22.40;68.60;;;;;;5122870;28;20035;-35
2021/09/20 00:11:19;;;;;;;1.55;1.02;;;22.40;68.00;;;;;;5122964;28;20110;-36
2021/09/20 00:13:45;;;;;;;1.25;1.10;;;22.40;68.00;;;;;;5119319;28;20027;-35
2021/09/20 00:16:11;;;;;;;1.50;1.40;;;22.40;68.60;;;;;;5122549;28;20040;-35
2021/09/20 00:18:38;;;;;;;1.67;1.25;;;22.40;68.80;;;;;;5119219;28;20532;-35
2021/09/20 00:21:04;;;;;;;1.27;1.13;;;22.40;67.40;;;;;;5108376;28;20479;-35
2021/09/20 00:23:30;;;;;;;1.55;1.20;;;22.40;67.00;;;;;;5123478;28;20122;-35
2021/09/20 00:25:59;;;;;;;1.37;1.27;;;22.40;66.40;;;;;;5123653;28;20031;-35
2021/09/20 00:28:26;;;;;;;1.20;1.10;;;22.40;67.10;;;;;;5125499;28;20099;-35
2021/09/20 00:30:52;;;;;;;2.53;1.38;;;22.40;69.70;;;;;;5104363;28;20092;-35
2021/09/20 00:33:18;;;;;;;1.30;1.20;;;22.40;69.60;;;;;;5124573;28;20023;-35
2021/09/20 00:35:44;;;;;;;1.35;1.25;;;22.40;70.30;;;;;;5125586;28;20091;-36
2021/09/20 00:38:11;;;;;;;1.80;1.58;;;22.40;70.90;;;;;;5125563;28;20135;-35
2021/09/20 00:40:37;;;;;;;1.40;1.30;;;22.40;71.30;;;;;;5126115;28;20063;-36
2021/09/20 00:43:03;;;;;;;1.30;1.20;;;22.50;70.80;;;;;;5126199;28;20835;-36
2021/09/20 00:45:30;;;;;;;1.40;1.30;;;22.40;70.00;;;;;;5125993;28;20035;-35
2021/09/20 00:47:56;;;;;;;1.30;1.20;;;22.50;69.00;;;;;;5125700;28;20034;-35
2021/09/20 00:50:22;;;;;;;1.55;1.30;;;22.40;68.80;;;;;;5125887;28;20078;-35
2021/09/20 00:52:48;;;;;;;1.90;1.20;;;22.40;69.60;;;;;;5126132;28;20118;-35
2021/09/20 00:55:15;;;;;;;2.47;1.50;;;22.40;70.80;;;;;;5124543;28;20071;-35
2021/09/20 00:57:41;;;;;;;1.50;1.40;;;22.50;71.00;;;;;;5107663;28;20054;-35
2021/09/20 01:00:08;;;;;;;1.92;1.40;;;22.50;71.10;;;;;;5132361;27;20041;-36
2021/09/20 01:02:34;;;;;;;;;;;22.50;71.40;;;;;;5116022;28;20066;-35
2021/09/20 01:05:00;;;;;;;1.30;1.20;;;22.50;72.00;;;;;;5125508;28;19915;-35
2021/09/20 01:07:26;;;;;;;1.60;1.42;;;22.50;69.90;;;;;;5123590;28;20024;-37
2021/09/20 01:09:53;;;;;;;1.40;1.30;;;22.50;68.40;;;;;;5125198;28;20095;-36
2021/09/20 01:12:19;;;;;;;3.15;1.50;;;22.50;67.10;;;;;;5125522;28;20028;-35
2021/09/20 01:14:45;;;;;;;1.63;1.38;;;22.50;68.20;;;;;;5124625;28;20035;-35
2021/09/20 01:17:11;;;;;;;1.58;1.40;;;22.50;70.10;;;;;;5125712;28;20065;-35
2021/09/20 01:19:38;;;;;;;2.90;1.60;;;22.50;70.80;;;;;;5125068;28;20059;-35
2021/09/20 01:22:23;;;;;;;3.50;1.50;;;22.50;71.70;;;;;;5125065;28;20083;-35
2021/09/20 01:24:50;;;;;;;1.50;1.40;;;22.50;71.50;;;;;;5109777;28;20102;-35
2021/09/20 01:27:18;;;;;;;1.55;1.40;;;22.50;71.40;;;;;;5124798;28;20031;-35
2021/09/20 01:29:45;;;;;;;2.65;1.45;;;22.50;71.10;;;;;;5125028;28;20032;-35
2021/09/20 01:32:11;;;;;;;1.63;1.33;;;22.50;69.20;;;;;;5125522;28;20487;-35
2021/09/20 01:34:37;;;;;;;1.30;1.20;;;22.50;67.80;;;;;;5124346;28;20078;-35
2021/09/20 01:37:03;;;;;;;1.45;1.35;;;22.50;67.20;;;;;;5125184;28;20047;-35
2021/09/20 01:39:31;;;;;;;1.38;1.27;;;22.50;69.00;;;;;;5124983;28;20016;-36
2021/09/20 01:41:58;;;;;;;1.85;1.38;;;22.50;69.40;;;;;;5125235;28;20055;-35
2021/09/20 01:44:24;;;;;;;1.60;1.50;;;22.50;69.80;;;;;;5124456;28;20020;-35
2021/09/20 01:46:52;;;;;;;1.53;1.43;;;22.50;69.60;;;;;;5124642;28;20080;-35
2021/09/20 01:49:18;;;;;;;1.40;1.30;;;22.50;69.70;;;;;;5104230;28;20040;-36
2021/09/20 01:51:45;;;;;;;1.23;1.13;;;22.50;68.80;;;;;;5123569;28;20083;-35
2021/09/20 01:54:11;;;;;;;1.37;1.03;;;22.50;67.40;;;;;;5124875;28;20106;-36
2021/09/20 01:56:38;;;;;;;1.35;1.25;;;22.50;66.40;;;;;;5124909;28;20031;-35
2021/09/20 01:59:07;;;;;;;1.80;1.45;;;22.50;66.50;;;;;;5111909;28;20083;-34
2021/09/20 02:01:33;;;;;;;1.45;1.35;;;22.50;68.70;;;;;;5124480;28;20062;-36
2021/09/20 02:03:59;;;;;;;1.67;1.55;;;22.50;68.10;;;;;;5098454;28;20024;-36
2021/09/20 02:06:26;;;;;;;1.50;1.40;;;22.50;70.20;;;;;;5117899;28;20047;-35
2021/09/20 02:08:52;;;;;;;1.60;1.50;;;22.50;70.00;;;;;;5123465;28;20024;-35
2021/09/20 02:11:19;;;;;;;1.50;1.38;;;22.50;70.20;;;;;;5104279;28;20131;-36
2021/09/20 02:13:45;;;;;;;;;;;22.50;70.20;;;;;;5109404;28;20061;-36
2021/09/20 02:16:12;;;;;;;1.45;1.35;;;22.50;70.30;;;;;;5124385;28;19919;-36
2021/09/20 02:18:40;;;;;;;1.50;1.40;;;22.50;69.90;;;;;;5124452;28;20023;-36
2021/09/20 02:21:07;;;;;;;1.45;1.35;;;22.50;70.00;;;;;;5118097;28;20072;-36
2021/09/20 02:23:34;;;;;;;1.38;1.27;;;22.50;69.50;;;;;;5123978;28;20085;-35
2021/09/20 02:26:00;;;;;;;1.20;1.13;;;22.50;68.00;;;;;;5123958;28;20686;-36
2021/09/20 02:28:26;;;;;;;1.53;1.40;;;22.50;66.80;;;;;;5113345;28;20028;-36
2021/09/20 02:30:53;;;;;;;1.40;1.30;;;22.50;66.60;;;;;;5117945;28;20031;-36
2021/09/20 02:33:19;;;;;;;1.33;1.23;;;22.50;67.60;;;;;;5105557;28;20019;-35
2021/09/20 02:35:45;;;;;;;1.52;1.42;;;22.50;68.80;;;;;;5123558;28;20092;-35
2021/09/20 02:38:11;;;;;;;1.35;1.25;;;22.50;69.50;;;;;;5123857;28;20034;-36
2021/09/20 02:40:38;;;;;;;1.60;1.50;;;22.50;69.60;;;;;;5123492;28;20020;-35
2021/09/20 02:43:04;;;;;;;1.63;1.53;;;22.50;69.80;;;;;;5123645;28;20024;-35
2021/09/20 02:45:30;;;;;;;1.70;1.58;;;22.50;70.00;;;;;;5123054;28;20077;-36
2021/09/20 02:47:56;;;;;;;1.50;1.40;;;22.50;70.80;;;;;;5123351;28;20018;-35
2021/09/20 02:50:23;;;;;;;1.50;1.40;;;22.50;69.90;;;;;;5122589;28;20418;-36
2021/09/20 02:52:49;;;;;;;1.48;1.30;;;22.50;70.10;;;;;;5121014;28;20027;-36
2021/09/20 02:55:15;;;;;;;3.38;1.45;;;22.50;70.00;;;;;;5123144;28;20051;-35
2021/09/20 02:57:42;;;;;;;1.67;1.57;;;22.50;70.10;;;;;;5123023;28;20031;-36
2021/09/20 03:00:09;;;;;;;1.98;1.52;;;22.50;70.20;;;;;;5105429;28;20027;-35
2021/09/20 03:02:35;;;;;;;1.65;1.55;;;22.50;70.30;;;;;;5123499;28;20462;-35
2021/09/20 03:05:02;;;;;;;1.60;1.43;;;22.50;70.50;;;;;;5123226;28;20039;-35
2021/09/20 03:07:28;;;;;;;1.60;1.50;;;22.50;70.50;;;;;;5122845;28;20049;-35
2021/09/20 03:09:54;;;;;;;1.55;1.45;;;22.50;70.30;;;;;;5122908;28;20032;-36
2021/09/20 03:12:20;;;;;;;1.80;1.33;;;22.50;69.50;;;;;;5123259;28;20028;-35
2021/09/20 03:14:46;;;;;;;1.50;1.40;;;22.50;68.40;;;;;;5122675;28;20058;-35
2021/09/20 03:17:12;;;;;;;1.85;1.35;;;22.50;67.40;;;;;;5122803;28;20020;-35
2021/09/20 03:19:39;;;;;;;1.40;1.30;;;22.50;67.50;;;;;;5123215;28;20054;-35
2021/09/20 03:22:05;;;;;;;1.50;1.40;;;22.50;68.40;;;;;;5123114;28;20020;-35
2021/09/20 03:24:31;;;;;;;1.63;1.52;;;22.50;69.20;;;;;;5121562;28;20028;-35
2021/09/20 03:26:57;;;;;;;1.60;1.45;;;22.50;69.30;;;;;;5116981;28;20015;-35
2021/09/20 03:29:23;;;;;;;1.40;1.30;;;22.50;69.60;;;;;;5122952;28;20035;-36
2021/09/20 03:31:50;;;;;;;1.65;1.55;;;22.50;69.70;;;;;;5108789;28;20071;-35
2021/09/20 03:34:16;;;;;;;3.15;1.40;;;22.50;69.80;;;;;;5122849;28;20027;-36
2021/09/20 03:36:42;;;;;;;1.58;1.48;;;22.50;69.80;;;;;;5122355;28;20061;-36
2021/09/20 03:39:08;;;;;;;1.50;1.40;;;22.50;70.10;;;;;;5104112;28;20023;-36
2021/09/20 03:41:34;;;;;;;1.35;1.25;;;22.50;70.10;;;;;;5122170;28;20027;-36
2021/09/20 03:44:00;;;;;;;1.50;1.40;;;22.50;70.10;;;;;;5122855;28;20016;-36
2021/09/20 03:46:27;;;;;;;1.50;1.40;;;22.50;70.20;;;;;;5121805;28;20031;-36
2021/09/20 03:48:53;;;;;;;1.77;1.55;;;22.50;70.10;;;;;;5122308;28;20036;-36
2021/09/20 03:51:20;;;;;;;1.52;1.42;;;22.50;70.00;;;;;;5122278;28;20055;-36
2021/09/20 03:53:46;;;;;;;1.42;1.33;;;22.50;70.10;;;;;;5122747;28;20029;-36
2021/09/20 03:56:12;;;;;;;1.48;1.38;;;22.50;70.10;;;;;;5121823;28;20039;-36
2021/09/20 03:58:38;;;;;;;1.50;1.40;;;22.60;70.10;;;;;;5124017;28;20031;-35
2021/09/20 04:01:04;;;;;;;1.85;1.20;;;22.60;70.10;;;;;;5126734;28;20030;-36
2021/09/20 04:03:31;;;;;;;1.38;1.20;;;22.60;70.00;;;;;;5126764;28;20032;-36
2021/09/20 04:05:57;;;;;;;1.37;1.27;;;22.60;70.00;;;;;;5126561;28;20103;-36
2021/09/20 04:08:32;;;;;;;2.33;1.17;;;22.60;69.90;;;;;;5126374;28;20099;-36
2021/09/20 04:10:58;;;;;;;1.70;1.60;;;22.60;69.90;;;;;;5126646;28;20036;-36
2021/09/20 04:13:25;;;;;;;1.42;1.33;;;22.60;70.00;;;;;;5126665;28;20112;-35
2021/09/20 04:15:54;;;;;;;1.50;1.40;;;22.60;70.00;;;;;;5108312;28;20024;-36
2021/09/20 04:18:25;;;;;;;1.42;1.33;;;22.60;69.90;;;;;;5126381;28;20027;-36
2021/09/20 04:20:51;;;;;;;1.50;1.40;;;22.60;70.00;;;;;;5126450;28;20024;-36
2021/09/20 04:23:19;;;;;;;1.40;1.30;;;22.60;69.90;;;;;;5126493;28;20638;-35
2021/09/20 04:25:45;;;;;;;;;;;22.60;69.90;;;;;;5126696;28;20051;-36
2021/09/20 04:28:11;;;;;;;1.60;1.50;;;22.60;69.80;;;;;;5116734;28;19910;-36
2021/09/20 04:30:38;;;;;;;1.60;1.50;;;22.60;70.60;;;;;;5118254;28;20028;-36
2021/09/20 04:33:04;;;;;;;1.35;1.10;;;22.60;69.90;;;;;;5126315;28;20027;-36
2021/09/20 04:35:30;;;;;;;1.33;1.23;;;22.60;69.90;;;;;;5126066;28;20583;-36
2021/09/20 04:37:56;;;;;;;1.75;1.50;;;22.60;69.90;;;;;;5125903;28;20015;-36
2021/09/20 04:40:22;;;;;;;1.75;1.40;;;22.60;69.90;;;;;;5125705;28;20240;-36
2021/09/20 04:42:48;;;;;;;1.55;1.25;;;22.60;70.00;;;;;;5126038;28;20126;-36
2021/09/20 04:45:15;;;;;;;1.70;1.48;;;22.60;69.90;;;;;;5125675;28;20027;-36
2021/09/20 04:47:41;;;;;;;1.38;1.20;;;22.60;69.90;;;;;;5125593;28;20012;-36
2021/09/20 04:50:08;;;;;;;1.58;1.48;;;22.60;69.90;;;;;;5125783;28;20051;-36
2021/09/20 04:52:34;;;;;;;1.45;1.35;;;22.60;70.00;;;;;;5126114;28;20028;-36
2021/09/20 04:55:01;;;;;;;1.80;1.33;;;22.60;70.00;;;;;;5125719;28;20031;-35
2021/09/20 04:57:27;;;;;;;1.70;1.60;;;22.60;70.00;;;;;;5123665;28;20031;-36
2021/09/20 04:59:53;;;;;;;1.40;1.25;;;22.60;70.00;;;;;;5125912;28;20051;-35
2021/09/20 05:02:19;;;;;;;1.60;1.40;;;22.60;70.10;;;;;;5125698;28;20024;-36
2021/09/20 05:04:45;;;;;;;1.50;1.40;;;22.70;70.10;;;;;;5125560;28;20091;-36
2021/09/20 05:07:11;;;;;;;1.40;1.30;;;22.70;70.10;;;;;;5115620;28;20038;-36
2021/09/20 05:09:38;;;;;;;1.70;1.50;;;22.70;70.10;;;;;;5123324;28;20035;-36
2021/09/20 05:12:04;;;;;;;1.67;1.42;;;22.70;70.10;;;;;;5125338;28;20040;-36
2021/09/20 05:14:30;;;;;;;2.10;1.90;;;22.70;70.10;;;;;;5125608;28;20023;-36
2021/09/20 05:16:58;;;;;;;1.50;1.40;;;22.70;70.10;;;;;;5125290;28;20519;-36
2021/09/20 05:19:25;;;;;;;1.50;1.40;;;22.70;70.10;;;;;;5108193;28;20036;-36
2021/09/20 05:21:51;;;;;;;1.30;1.20;;;22.70;70.10;;;;;;5125415;28;20023;-36
2021/09/20 05:24:17;;;;;;;1.40;1.30;;;22.70;70.20;;;;;;5125421;28;20024;-36
2021/09/20 05:26:44;;;;;;;1.50;1.40;;;22.70;70.20;;;;;;5106817;28;20423;-36
2021/09/20 05:29:10;;;;;;;1.30;1.20;;;22.70;70.10;;;;;;5124891;28;20032;-36
2021/09/20 05:31:36;;;;;;;1.65;1.50;;;22.70;70.10;;;;;;5125195;28;20069;-36
2021/09/20 05:34:02;;;;;;;1.50;1.40;;;22.70;70.10;;;;;;5125185;28;20027;-36
2021/09/20 05:36:28;;;;;;;1.45;1.30;;;22.70;70.10;;;;;;5124946;28;20038;-36
2021/09/20 05:38:54;;;;;;;1.30;1.20;;;22.70;70.10;;;;;;5124787;28;20586;-35
2021/09/20 05:41:20;;;;;;;1.90;1.42;;;22.70;70.10;;;;;;5124619;28;20041;-36
2021/09/20 05:43:46;;;;;;;1.30;1.20;;;22.70;70.00;;;;;;5124941;28;20092;-36
2021/09/20 05:46:13;;;;;;;1.30;1.20;;;22.70;70.10;;;;;;5124837;28;20047;-36
2021/09/20 05:48:39;;;;;;;1.52;1.40;;;22.70;70.10;;;;;;5124649;28;20032;-36
2021/09/20 05:51:06;;;;;;;1.40;1.30;;;22.70;70.10;;;;;;5105825;28;20142;-35
2021/09/20 05:53:32;;;;;;;1.40;1.30;;;22.70;70.20;;;;;;5124589;28;20103;-36
2021/09/20 05:55:58;;;;;;;1.58;1.40;;;22.70;70.20;;;;;;5124476;28;20036;-35
2021/09/20 05:58:24;;;;;;;1.42;1.33;;;22.70;70.20;;;;;;5124001;28;20019;-36
2021/09/20 06:00:51;;;;;;;2.50;1.20;;;22.70;70.20;;;;;;5118436;28;20032;-36
2021/09/20 06:03:17;;;;;;;2.00;1.20;;;22.70;70.30;;;;;;5121832;28;20034;-36
2021/09/20 06:05:43;;;;;;;1.40;1.30;;;22.70;70.30;;;;;;5124529;28;20360;-36
2021/09/20 06:08:10;;;;;;;2.63;1.43;;;22.70;71.00;;;;;;5123420;28;20040;-36
2021/09/20 06:10:36;;;;;;;1.48;1.23;;;22.70;70.30;;;;;;5124191;28;20268;-36
2021/09/20 06:13:04;;;;;;;2.03;1.52;;;22.70;70.30;;;;;;5124417;28;20030;-35
2021/09/20 06:15:31;;;;;;;1.42;1.30;;;22.70;70.30;;;;;;5124059;28;20048;-36
2021/09/20 06:17:57;;;;;;;1.50;1.40;;;22.70;70.30;;;;;;5124390;28;20016;-35
2021/09/20 06:20:24;;;;;;;1.63;1.52;;;22.70;70.20;;;;;;5123591;28;20036;-36
2021/09/20 06:22:50;;;;;;;1.40;1.30;;;22.70;70.30;;;;;;5091491;28;20024;-36
2021/09/20 06:25:16;;;;;;;1.85;1.25;;;22.70;70.20;;;;;;5120505;28;20059;-36
2021/09/20 06:27:42;;;;;;;1.33;1.17;;;22.70;70.30;;;;;;5108339;28;20012;-36
2021/09/20 06:30:09;;;;;;;1.70;1.23;;;22.80;70.30;;;;;;5123891;28;20027;-35
2021/09/20 06:32:35;;;;;;;1.65;1.55;;;22.80;70.30;;;;;;5123969;28;20034;-36
2021/09/20 06:35:01;;;;;;;2.22;1.48;;;22.80;70.40;;;;;;5123774;28;20117;-36
2021/09/20 06:37:28;;;;;;;1.33;1.23;;;22.70;70.30;;;;;;5124070;28;20027;-36
2021/09/20 06:39:54;;;;;;;2.35;1.60;;;22.70;70.30;;;;;;5123460;28;20027;-35
2021/09/20 06:42:20;;;;;;;1.45;1.35;;;22.80;70.50;;;;;;5123770;28;20036;-36
2021/09/20 06:44:50;;;;;;;1.38;1.27;;;22.80;70.50;;;;;;5123523;28;20114;-36
2021/09/20 06:47:20;;;;;;;1.40;1.30;;;22.70;70.40;;;;;;5123537;28;20034;-36
2021/09/20 06:49:47;;;;;;;1.75;1.60;;;22.80;70.50;;;;;;5123296;28;20059;-36
2021/09/20 06:52:13;;;;;;;1.75;1.40;;;22.80;70.50;;;;;;5120209;28;20043;-36
2021/09/20 06:54:39;;;;;;;1.42;1.15;;;22.80;70.50;;;;;;5085113;28;20024;-36
2021/09/20 06:57:06;;;;;;;2.00;1.30;;;22.80;70.50;;;;;;5118238;28;20035;-36
2021/09/20 06:59:32;;;;;;;1.48;1.30;;;22.80;70.50;;;;;;5122872;28;20260;-36
2021/09/20 07:01:58;;;;;;;1.40;1.30;;;22.70;70.40;;;;;;5123596;28;20039;-36
2021/09/20 07:04:24;;;;;;;1.50;1.40;;;22.80;70.50;;;;;;5123381;28;20026;-36
2021/09/20 07:06:50;;;;;;;1.52;1.42;;;22.70;70.40;;;;;;5123419;28;20027;-36
2021/09/20 07:09:16;;;;;;;1.38;1.25;;;22.80;70.50;;;;;;5122981;28;20020;-36
2021/09/20 07:11:43;;;;;;;1.73;1.55;;;22.80;70.60;;;;;;5123310;28;20032;-36
2021/09/20 07:14:09;;;;;;;1.60;1.50;;;22.80;70.60;;;;;;5123530;28;20085;-35
2021/09/20 07:16:35;;;;;;;1.85;1.63;;;22.80;70.60;;;;;;5123239;28;20031;-36
2021/09/20 07:19:01;;;;;;;1.50;1.40;;;22.80;70.60;;;;;;5123452;28;20086;-36
2021/09/20 07:21:28;;;;;;;1.40;1.30;;;22.80;70.60;;;;;;5120026;28;20042;-36
2021/09/20 07:23:55;;;;;;;2.10;1.50;;;22.80;70.60;;;;;;5109127;28;20019;-36
2021/09/20 07:26:22;;;;;;;1.30;1.20;;;22.80;70.60;;;;;;5104680;28;20024;-37
2021/09/20 07:28:48;;;;;;;1.45;1.35;;;22.80;70.70;;;;;;5123309;28;20020;-36
2021/09/20 07:31:14;;;;;;;1.57;1.27;;;22.80;70.70;;;;;;5122470;28;20490;-36
2021/09/20 07:33:40;;;;;;;1.40;1.30;;;22.80;70.70;;;;;;5122202;28;20028;-36
2021/09/20 07:36:07;;;;;;;1.40;1.30;;;22.80;70.70;;;;;;5123283;28;20043;-36
2021/09/20 07:38:33;;;;;;;1.67;1.30;;;22.80;70.70;;;;;;5123206;28;20035;-36
2021/09/20 07:41:00;;;;;;;2.97;1.50;;;22.80;70.70;;;;;;5122513;28;20120;-36
2021/09/20 07:43:26;;;;;;;1.10;1.00;;;22.80;70.60;;;;;;5122672;28;20016;-36
2021/09/20 07:45:52;;;;;;;1.33;1.23;;;22.80;70.70;;;;;;5122851;28;20031;-36
2021/09/20 07:48:18;;;;;;;1.40;1.30;;;22.80;70.70;;;;;;5122350;28;20023;-36
2021/09/20 07:50:44;;;;;;;1.50;1.40;;;22.80;70.70;;;;;;5122333;28;20075;-36
2021/09/20 07:53:11;;;;;;;1.63;1.52;;;22.80;70.70;;;;;;5122631;28;20028;-36
2021/09/20 07:55:37;;;;;;;1.85;1.40;;;22.80;70.70;;;;;;5105862;28;20061;-36
2021/09/20 07:58:07;;;;;;;1.50;1.40;;;22.80;70.70;;;;;;5121306;28;20023;-36
2021/09/20 08:00:35;;;;;;;1.40;1.30;;;22.80;70.80;;;;;;5122409;28;20138;-36
2021/09/20 08:03:01;;;;;;;1.67;1.52;;;22.80;70.70;;;;;;5122546;28;20034;-36
2021/09/20 08:05:27;;;;;;;1.53;1.43;;;22.80;70.80;;;;;;5122829;28;20051;-36
2021/09/20 08:07:53;;;;;;;1.60;1.50;;;22.80;70.80;;;;;;5122334;28;20027;-36
2021/09/20 08:10:20;;;;;;;1.70;1.60;;;22.80;71.60;;;;;;5122150;28;20035;-36
2021/09/20 08:12:46;;;;;;;1.75;1.58;;;22.80;71.00;;;;;;5120079;28;20024;-36
2021/09/20 08:15:12;;;;;;;1.50;1.40;;;22.80;70.80;;;;;;5122347;28;20059;-36
2021/09/20 08:17:38;;;;;;;1.60;1.50;;;22.80;70.80;;;;;;5122706;28;20016;-35
2021/09/20 08:20:06;;;;;;;1.73;1.40;;;22.80;70.80;;;;;;5122276;28;20031;-36
2021/09/20 08:22:32;;;;;;;1.90;1.70;;;22.80;70.90;;;;;;5122519;28;20095;-36
2021/09/20 08:24:59;;;;;;;1.50;1.40;;;22.80;70.80;;;;;;5122700;28;20174;-36
2021/09/20 08:27:26;;;;;;;1.60;1.50;;;22.80;70.90;;;;;;5122377;28;20492;-36
2021/09/20 08:29:52;;;;;;;1.35;1.25;;;22.80;70.70;;;;;;5122754;28;20031;-36
2021/09/20 08:32:18;;;;;;;2.00;1.85;;;22.80;70.00;;;;;;5122141;28;20034;-35
2021/09/20 08:34:44;;;;;;;1.80;1.70;;;22.80;69.40;;;;;;5122365;28;20024;-36
2021/09/20 08:37:11;;;;;;;1.98;1.80;;;22.80;69.40;;;;;;5121506;28;20067;-36
2021/09/20 08:39:37;;;;;;;1.77;1.67;;;22.80;69.50;;;;;;5105996;28;20049;-36
2021/09/20 08:42:03;;;;;;;1.70;1.60;;;22.80;70.10;;;;;;5122152;28;20828;-36
2021/09/20 08:44:29;;;;;;;1.80;1.70;;;22.80;70.30;;;;;;5123357;28;20050;-36
2021/09/20 08:46:56;;;;;;;1.70;1.60;;;22.80;70.50;;;;;;5126197;28;20042;-36
2021/09/20 08:49:32;;;;;;;1.67;1.53;;;22.80;70.60;;;;;;5125479;28;20043;-36
2021/09/20 08:51:58;;;;;;;2.22;1.60;;;22.80;70.50;;;;;;5107877;28;20031;-36
2021/09/20 08:54:25;;;;;;;1.73;1.63;;;22.80;70.60;;;;;;5126076;28;20024;-36
2021/09/20 08:56:52;;;;;;;1.73;1.63;;;22.80;70.60;;;;;;5125587;28;20042;-36
2021/09/20 08:59:18;;;;;;;1.60;1.50;;;22.80;70.60;;;;;;5124096;28;20027;-36
2021/09/20 09:01:47;;;;;;;2.20;2.00;;;22.80;70.60;;;;;;5125627;28;20260;-36
2021/09/20 09:04:40;;;;;;;1.70;1.50;;;22.80;70.60;;;;;;5125836;28;20523;-36
2021/09/20 09:07:09;;;;;;;1.90;1.58;;;22.80;70.60;;;;;;5122084;28;20030;-36
2021/09/20 09:09:38;;;;;;;1.55;1.45;;;22.80;70.60;;;;;;5108704;28;20079;-36
2021/09/20 09:12:30;;;;;;;1.85;1.70;;;22.80;70.70;;;;;;5125274;28;20026;-36
2021/09/20 09:14:58;;;;;;;1.90;1.70;;;22.80;70.70;;;;;;5118066;28;20038;-36
2021/09/20 09:17:28;;;;;;;1.67;1.58;;;22.80;70.60;;;;;;5125395;28;20039;-36
2021/09/20 09:19:59;;;;;;;1.77;1.65;;;22.80;70.70;;;;;;5124921;28;20035;-36
2021/09/20 09:22:46;;;;;;;1.65;1.55;;;22.80;70.70;;;;;;5125508;28;20120;-36
2021/09/20 09:25:14;;;;;;;1.70;1.58;;;22.80;70.80;;;;;;5124968;28;20054;-36
2021/09/20 09:27:41;;;;;;;1.63;1.52;;;22.80;70.70;;;;;;5109193;28;20027;-36
2021/09/20 09:30:09;;;;;;;1.77;1.67;;;22.80;70.80;;;;;;5106752;28;20065;-36
2021/09/20 09:32:36;;;;;;;1.65;1.55;;;22.80;70.80;;;;;;5125100;28;20027;-36
2021/09/20 09:35:07;;;;;;;1.83;1.73;;;22.80;70.80;;;;;;5125178;28;20028;-36
2021/09/20 09:37:35;;;;;;;2.22;1.90;;;22.80;70.90;;;;;;5125074;28;20027;-36
2021/09/20 09:40:13;;;;;;;2.58;2.20;;;22.80;70.80;;;;;;5124953;28;20051;-36
2021/09/20 09:42:40;;;;;;;2.22;2.03;;;22.80;70.90;;;;;;5106986;28;20028;-36
2021/09/20 09:45:17;;;;;;;1.63;1.52;;;22.80;70.30;;;;;;5124911;28;20031;-36
2021/09/20 09:47:44;;;;;;;2.05;1.95;;;22.80;69.80;;;;;;5114153;28;20024;-36
2021/09/20 09:50:26;;;;;;;2.45;2.22;;;22.80;69.80;;;;;;5106854;28;20048;-36
2021/09/20 09:52:54;;;;;;;2.28;2.08;;;22.80;69.70;;;;;;5118908;28;20031;-36
2021/09/20 09:55:21;;;;;;;1.88;1.77;;;22.80;70.50;;;;;;5124179;28;20040;-36
2021/09/20 09:57:49;;;;;;;2.13;1.92;;;22.80;70.70;;;;;;5124044;28;20019;-36
2021/09/20 10:00:18;;;;;;;2.15;1.80;;;22.70;70.80;;;;;;5123963;28;20042;-36
2021/09/20 10:02:51;;;;;;;2.30;2.10;;;22.80;70.90;;;;;;5124659;28;20046;-36
2021/09/20 10:05:19;;;;;;;2.08;1.95;;;22.80;71.00;;;;;;5124105;28;20030;-36
2021/09/20 10:07:50;;;;;;;2.45;2.25;;;22.70;70.80;;;;;;5124141;28;20031;-37
2021/09/20 10:10:18;;;;;;;2.28;1.98;;;22.70;70.80;;;;;;5123687;28;20051;-36
2021/09/20 10:12:45;;;;;;;3.40;2.20;;;22.70;70.80;;;;;;5108620;28;20040;-36
2021/09/20 10:15:12;;;;;;;;;;;22.70;70.90;;;;;;5102299;28;20127;-36
2021/09/20 10:17:39;;;;;;;1.95;1.73;;;22.70;70.80;;;;;;5107386;28;20003;-36
2021/09/20 10:20:07;;;;;;;2.30;2.08;;;22.70;71.00;;;;;;5115387;28;20047;-36
2021/09/20 10:22:33;;;;;;;2.55;2.35;;;22.70;70.90;;;;;;5114818;28;20024;-36
2021/09/20 10:25:00;;;;;;;2.53;2.22;;;22.80;71.00;;;;;;5123418;28;20028;-36
2021/09/20 10:27:27;;;;;;;2.20;2.00;;;22.70;71.00;;;;;;5123129;28;20034;-36
2021/09/20 10:29:56;;;;;;;2.05;1.95;;;22.70;71.00;;;;;;5122989;28;20039;-36
2021/09/20 10:32:25;;;;;;;2.10;1.90;;;22.80;71.10;;;;;;5123944;28;20039;-36
2021/09/20 10:34:51;;;;;;;2.45;2.03;;;22.80;71.20;;;;;;5084709;28;20032;-36
2021/09/20 10:37:23;;;;;;;2.13;1.83;;;22.80;71.20;;;;;;5121457;28;20085;-36
2021/09/20 10:40:04;;;;;;;2.30;2.10;;;22.80;71.20;;;;;;5105633;28;20028;-36
2021/09/20 10:42:36;;;;;;;2.30;2.10;;;22.70;71.20;;;;;;5123768;28;20057;-36
2021/09/20 10:45:07;;;;;;;2.33;2.13;;;22.80;71.30;;;;;;5120036;28;20016;-36
2021/09/20 10:47:47;;;;;;;2.70;2.28;;;22.80;71.40;;;;;;5123743;28;20027;-37
2021/09/20 10:50:13;;;;;;;2.20;2.00;;;22.70;71.30;;;;;;5113956;28;20695;-37
2021/09/20 10:53:22;;;;;;;2.28;1.88;;;22.80;71.40;;;;;;5097767;28;20047;-36
2021/09/20 10:56:03;;;;;;;2.47;2.08;;;22.80;71.50;;;;;;5122060;28;20032;-36
2021/09/20 10:58:30;;;;;;;2.60;2.33;;;22.80;71.50;;;;;;5123267;28;20027;-36
2021/09/20 11:01:11;;;;;;;3.10;2.35;;;22.80;71.40;;;;;;5122807;28;20059;-36
2021/09/20 11:03:54;;;;;;;3.13;2.38;;;22.80;70.60;;;;;;5119850;28;20055;-36
2021/09/20 11:06:25;;;;;;;2.20;2.00;;;22.80;70.00;;;;;;5106828;28;20035;-36
2021/09/20 11:09:03;;;;;;;2.10;1.90;;;22.80;69.90;;;;;;5109298;28;20153;-36
2021/09/20 11:11:40;;;;;;;2.50;2.30;;;22.80;70.50;;;;;;5122120;28;20028;-36
2021/09/20 11:14:36;;;;;;;3.10;2.75;;;22.80;71.10;;;;;;5123485;28;20018;-36
2021/09/20 11:17:19;;;;;;;3.38;2.35;;;22.80;72.00;;;;;;5123180;28;20039;-36
2021/09/20 11:19:45;;;;;;;3.00;2.67;;;22.80;71.50;;;;;;5100406;28;20028;-36
2021/09/20 11:22:14;;;;;;;2.22;2.03;;;22.80;71.50;;;;;;5113596;28;20073;-36
2021/09/20 11:24:47;;;;;;;3.00;2.70;;;22.70;71.40;;;;;;5123131;28;20038;-36
2021/09/20 11:27:15;;;;;;;3.05;2.45;;;22.70;71.30;;;;;;5104815;28;20032;-36
2021/09/20 11:29:42;;;;;;;2.55;2.35;;;22.80;71.40;;;;;;5101989;28;20030;-36
2021/09/20 11:32:08;;;;;;;2.60;2.40;;;22.80;71.50;;;;;;5123066;28;20028;-36
2021/09/20 11:34:37;;;;;;;3.00;2.47;;;22.80;71.50;;;;;;5111077;28;20028;-36
2021/09/20 11:37:11;;;;;;;3.00;2.70;;;22.80;71.50;;;;;;5118494;28;20034;-36
2021/09/20 11:39:52;;;;;;;3.80;2.40;;;22.80;70.90;;;;;;5106605;28;20031;-35
2021/09/20 11:42:20;;;;;;;2.42;2.22;;;22.80;69.90;;;;;;5122746;28;20024;-36
2021/09/20 11:44:53;;;;;;;3.05;2.67;;;22.70;69.80;;;;;;5123118;28;20024;-36
2021/09/20 11:47:21;;;;;;;2.78;2.53;;;22.70;69.80;;;;;;5122655;28;20058;-36
2021/09/20 11:49:48;;;;;;;2.70;2.50;;;22.70;70.60;;;;;;5122226;28;20046;-36
2021/09/20 11:52:14;;;;;;;3.05;2.58;;;22.70;71.00;;;;;;5122595;28;20036;-36
2021/09/20 11:54:45;;;;;;;3.07;2.30;;;22.70;71.20;;;;;;5122719;28;20126;-36
2021/09/20 11:57:13;;;;;;;2.72;2.33;;;22.70;71.30;;;;;;5104262;28;20031;-36
2021/09/20 11:59:39;;;;;;;3.35;2.70;;;22.70;71.30;;;;;;5122738;28;20083;-35
2021/09/20 12:02:06;;;;;;;3.33;2.75;;;22.70;71.40;;;;;;5122833;28;20140;-36
2021/09/20 12:04:48;;;;;;;;;;;22.70;71.40;;;;;;5122762;28;20020;-36
2021/09/20 12:07:39;;;;;;;3.15;2.35;;;22.70;71.50;;;;;;5122487;28;19968;-36
2021/09/20 12:10:06;;;;;;;2.85;2.63;;;22.70;71.50;;;;;;5111956;28;20747;-36
2021/09/20 12:12:36;;;;;;;3.85;2.50;;;22.70;71.60;;;;;;5139352;28;20023;-36
2021/09/20 12:15:12;;;;;;;3.10;2.83;;;22.70;71.50;;;;;;5127221;28;20081;-36
2021/09/20 12:17:58;;;;;;;3.22;2.92;;;22.70;71.70;;;;;;5122803;28;20031;-35
2021/09/20 12:21:06;;;;;;;3.35;2.85;;;22.70;71.70;;;;;;5125257;28;20034;-36
2021/09/20 12:23:48;;;;;;;3.13;2.47;;;22.70;71.70;;;;;;5042931;28;20030;-36
2021/09/20 12:26:19;;;;;;;3.00;2.70;;;22.70;71.70;;;;;;5062849;28;20140;-36
2021/09/20 12:28:50;;;;;;;3.42;2.80;;;22.70;71.70;;;;;;5071197;28;20089;-36
2021/09/20 12:31:21;;;;;;;4.28;2.80;;;22.70;71.80;;;;;;5083090;28;20071;-36
2021/09/20 12:33:58;;;;;;;3.80;2.75;;;22.70;71.80;;;;;;5082966;28;20044;-36
2021/09/20 12:36:34;;;;;;;3.63;2.75;;;22.70;71.80;;;;;;5083201;28;20043;-36
2021/09/20 12:39:12;;;;;;;3.28;2.70;;;22.70;71.90;;;;;;5083245;28;20128;-35
2021/09/20 12:41:39;;;;;;;;;;;22.70;71.90;;;;;;5054759;28;20055;-36
2021/09/20 12:44:06;;;;;;;3.28;2.83;;;22.80;72.00;;;;;;5062859;28;19909;-36
2021/09/20 12:46:32;;;;;;;3.10;2.42;;;22.70;72.10;;;;;;5062829;28;20084;-35
2021/09/20 12:48:59;;;;;;;3.30;2.70;;;22.80;72.20;;;;;;5063102;28;20025;-36
2021/09/20 12:51:32;;;;;;;3.40;3.03;;;22.80;72.30;;;;;;5062470;28;20075;-36
2021/09/20 12:53:59;;;;;;;3.38;2.70;;;22.80;72.30;;;;;;5062689;28;20116;-36